sensor_id;sensor_type;location;lat;lon;timestamp;pressure;altitude;pressure_sealevel;temperature;humidity
70248;BME280;57641;51.416;5.506;2023-01-09T00:00:41;99530.38;;;12.12;61.88
70248;BME280;57641;51.416;5.506;2023-01-09T00:03:07;99523.78;;;12.08;62.35
70248;BME280;57641;51.416;5.506;2023-01-09T00:05:32;99522.72;;;12.03;61.94
70248;BME280;57641;51.416;5.506;2023-01-09T00:07:59;99522.38;;;12.12;61.20
70248;BME280;57641;51.416;5.506;2023-01-09T00:10:24;99524.50;;;11.96;61.76
70248;BME280;57641;51.416;5.506;2023-01-09T00:12:50;99531.69;;;11.95;61.42
70248;BME280;57641;51.416;5.506;2023-01-09T00:15:15;99538.53;;;11.76;62.33
70248;BME280;57641;51.416;5.506;2023-01-09T00:17:41;99532.69;;;11.88;62.05
70248;BME280;57641;51.416;5.506;2023-01-09T00:20:09;99548.78;;;11.73;61.95
70248;BME280;57641;51.416;5.506;2023-01-09T00:22:36;99550.78;;;11.71;62.46
70248;BME280;57641;51.416;5.506;2023-01-09T00:25:02;99553.97;;;11.60;62.34
70248;BME280;57641;51.416;5.506;2023-01-09T00:27:32;99549.72;;;11.65;62.42
70248;BME280;57641;51.416;5.506;2023-01-09T00:29:59;99548.88;;;11.65;61.75
70248;BME280;57641;51.416;5.506;2023-01-09T00:32:27;99553.63;;;11.69;61.90
70248;BME280;57641;51.416;5.506;2023-01-09T00:34:54;99552.28;;;11.52;61.56
70248;BME280;57641;51.416;5.506;2023-01-09T00:37:21;99551.13;;;11.61;62.05
70248;BME280;57641;51.416;5.506;2023-01-09T00:39:47;99555.19;;;11.57;61.56
70248;BME280;57641;51.416;5.506;2023-01-09T00:42:17;99561.78;;;11.61;61.94
70248;BME280;57641;51.416;5.506;2023-01-09T00:44:48;99555.31;;;11.49;61.91
70248;BME280;57641;51.416;5.506;2023-01-09T00:47:30;99571.47;;;11.41;62.25
70248;BME280;57641;51.416;5.506;2023-01-09T00:50:07;99569.41;;;11.43;61.64
70248;BME280;57641;51.416;5.506;2023-01-09T00:52:35;99555.69;;;11.46;61.88
70248;BME280;57641;51.416;5.506;2023-01-09T00:55:03;99561.16;;;11.38;62.44
70248;BME280;57641;51.416;5.506;2023-01-09T00:57:32;99557.97;;;11.49;61.87
70248;BME280;57641;51.416;5.506;2023-01-09T00:59:58;99572.47;;;11.40;61.38
70248;BME280;57641;51.416;5.506;2023-01-09T01:02:25;99567.38;;;11.45;61.43
70248;BME280;57641;51.416;5.506;2023-01-09T01:04:51;99569.97;;;11.38;61.93
70248;BME280;57641;51.416;5.506;2023-01-09T01:07:35;99565.53;;;11.24;61.46
70248;BME280;57641;51.416;5.506;2023-01-09T01:10:23;99569.63;;;11.27;62.43
70248;BME280;57641;51.416;5.506;2023-01-09T01:12:49;99565.72;;;11.23;61.97
70248;BME280;57641;51.416;5.506;2023-01-09T01:15:15;99565.88;;;11.21;62.28
70248;BME280;57641;51.416;5.506;2023-01-09T01:17:45;99565.97;;;11.28;62.05
70248;BME280;57641;51.416;5.506;2023-01-09T01:20:17;99573.59;;;11.31;61.75
70248;BME280;57641;51.416;5.506;2023-01-09T01:22:48;99573.72;;;11.23;61.46
70248;BME280;57641;51.416;5.506;2023-01-09T01:25:15;99575.38;;;11.24;61.80
70248;BME280;57641;51.416;5.506;2023-01-09T01:27:42;99580.88;;;11.22;62.06
70248;BME280;57641;51.416;5.506;2023-01-09T01:30:11;99577.84;;;11.25;61.67
70248;BME280;57641;51.416;5.506;2023-01-09T01:32:37;99580.81;;;11.16;61.63
70248;BME280;57641;51.416;5.506;2023-01-09T01:35:05;99582.09;;;11.20;61.63
70248;BME280;57641;51.416;5.506;2023-01-09T01:37:31;99587.44;;;11.20;61.55
70248;BME280;57641;51.416;5.506;2023-01-09T01:40:06;99580.63;;;11.17;62.03
70248;BME280;57641;51.416;5.506;2023-01-09T01:42:32;99578.75;;;10.96;62.18
70248;BME280;57641;51.416;5.506;2023-01-09T01:45:04;99586.19;;;11.01;62.10
70248;BME280;57641;51.416;5.506;2023-01-09T01:48:04;99597.41;;;10.96;62.09
70248;BME280;57641;51.416;5.506;2023-01-09T01:53:33;99600.81;;;10.90;62.41
70248;BME280;57641;51.416;5.506;2023-01-09T01:56:19;99604.31;;;10.91;62.49
70248;BME280;57641;51.416;5.506;2023-01-09T01:59:09;99603.47;;;10.90;62.94
70248;BME280;57641;51.416;5.506;2023-01-09T02:01:37;99596.13;;;10.92;62.43
70248;BME280;57641;51.416;5.506;2023-01-09T02:04:06;99595.38;;;10.98;62.11
70248;BME280;57641;51.416;5.506;2023-01-09T02:06:34;99600.47;;;10.93;62.18
70248;BME280;57641;51.416;5.506;2023-01-09T02:09:02;99597.78;;;10.79;62.66
70248;BME280;57641;51.416;5.506;2023-01-09T02:11:32;99605.44;;;10.82;62.60
70248;BME280;57641;51.416;5.506;2023-01-09T02:14:00;99605.34;;;10.75;62.69
70248;BME280;57641;51.416;5.506;2023-01-09T02:16:53;99602.94;;;10.80;62.82
70248;BME280;57641;51.416;5.506;2023-01-09T02:28:20;99598.06;;;10.69;62.37
70248;BME280;57641;51.416;5.506;2023-01-09T02:33:51;99597.78;;;10.79;62.54
70248;BME280;57641;51.416;5.506;2023-01-09T02:36:27;99593.13;;;10.66;62.21
70248;BME280;57641;51.416;5.506;2023-01-09T02:45:00;99589.06;;;10.55;62.08
70248;BME280;57641;51.416;5.506;2023-01-09T02:50:01;99591.28;;;10.52;63.49
70248;BME280;57641;51.416;5.506;2023-01-09T03:07:01;99575.75;;;10.41;63.17
70248;BME280;57641;51.416;5.506;2023-01-09T03:09:33;99570.31;;;10.34;63.76
70248;BME280;57641;51.416;5.506;2023-01-09T03:12:15;99575.75;;;10.41;62.85
70248;BME280;57641;51.416;5.506;2023-01-09T03:14:46;99571.78;;;10.37;62.49
70248;BME280;57641;51.416;5.506;2023-01-09T03:17:18;99572.44;;;10.39;63.42
70248;BME280;57641;51.416;5.506;2023-01-09T03:19:45;99576.47;;;10.49;63.16
70248;BME280;57641;51.416;5.506;2023-01-09T03:22:11;99576.38;;;10.43;62.97
70248;BME280;57641;51.416;5.506;2023-01-09T03:24:36;99594.47;;;10.33;61.89
70248;BME280;57641;51.416;5.506;2023-01-09T03:27:07;99593.38;;;10.42;63.12
70248;BME280;57641;51.416;5.506;2023-01-09T03:29:37;99596.13;;;10.34;63.06
70248;BME280;57641;51.416;5.506;2023-01-09T03:32:05;99599.25;;;10.23;63.37
70248;BME280;57641;51.416;5.506;2023-01-09T03:34:31;99597.50;;;10.30;63.60
70248;BME280;57641;51.416;5.506;2023-01-09T03:36:57;99596.03;;;10.27;63.84
70248;BME280;57641;51.416;5.506;2023-01-09T03:39:26;99589.03;;;10.26;63.43
70248;BME280;57641;51.416;5.506;2023-01-09T03:41:54;99588.69;;;10.29;63.03
70248;BME280;57641;51.416;5.506;2023-01-09T03:44:20;99593.38;;;10.27;63.08
70248;BME280;57641;51.416;5.506;2023-01-09T03:46:45;99600.19;;;10.30;63.29
70248;BME280;57641;51.416;5.506;2023-01-09T03:49:11;99599.31;;;10.14;63.79
70248;BME280;57641;51.416;5.506;2023-01-09T03:51:41;99592.81;;;10.17;63.05
70248;BME280;57641;51.416;5.506;2023-01-09T03:54:07;99599.19;;;10.31;63.83
70248;BME280;57641;51.416;5.506;2023-01-09T03:56:32;99599.97;;;10.16;64.00
70248;BME280;57641;51.416;5.506;2023-01-09T03:58:58;99590.25;;;10.24;64.42
70248;BME280;57641;51.416;5.506;2023-01-09T04:01:24;99593.56;;;10.40;64.22
70248;BME280;57641;51.416;5.506;2023-01-09T04:03:49;99600.91;;;10.38;62.78
70248;BME280;57641;51.416;5.506;2023-01-09T04:06:15;99598.06;;;10.40;63.45
70248;BME280;57641;51.416;5.506;2023-01-09T04:08:41;99604.13;;;10.48;63.46
70248;BME280;57641;51.416;5.506;2023-01-09T04:11:06;99600.19;;;10.44;63.58
70248;BME280;57641;51.416;5.506;2023-01-09T04:13:32;99598.06;;;10.25;63.29
70248;BME280;57641;51.416;5.506;2023-01-09T04:15:57;99603.59;;;10.15;64.05
70248;BME280;57641;51.416;5.506;2023-01-09T04:18:23;99607.59;;;10.20;64.40
70248;BME280;57641;51.416;5.506;2023-01-09T04:20:48;99603.84;;;10.06;64.63
70248;BME280;57641;51.416;5.506;2023-01-09T04:23:14;99608.28;;;10.13;64.79
70248;BME280;57641;51.416;5.506;2023-01-09T04:25:40;99597.78;;;10.20;64.42
70248;BME280;57641;51.416;5.506;2023-01-09T04:28:06;99603.22;;;10.04;65.41
70248;BME280;57641;51.416;5.506;2023-01-09T04:30:32;99598.97;;;10.18;65.06
70248;BME280;57641;51.416;5.506;2023-01-09T04:32:58;99600.19;;;10.30;63.77
70248;BME280;57641;51.416;5.506;2023-01-09T04:35:24;99599.63;;;10.49;64.18
70248;BME280;57641;51.416;5.506;2023-01-09T04:37:49;99597.63;;;10.36;63.67
70248;BME280;57641;51.416;5.506;2023-01-09T04:40:15;99599.09;;;10.53;64.35
70248;BME280;57641;51.416;5.506;2023-01-09T04:42:51;99593.19;;;10.43;64.24
70248;BME280;57641;51.416;5.506;2023-01-09T04:45:16;99595.28;;;10.19;64.63
70248;BME280;57641;51.416;5.506;2023-01-09T04:47:42;99587.75;;;10.37;64.26
70248;BME280;57641;51.416;5.506;2023-01-09T04:50:15;99598.34;;;10.30;64.27
70248;BME280;57641;51.416;5.506;2023-01-09T04:52:41;99596.25;;;10.40;64.16
70248;BME280;57641;51.416;5.506;2023-01-09T04:55:07;99588.53;;;10.45;63.43
70248;BME280;57641;51.416;5.506;2023-01-09T04:57:34;99586.41;;;10.55;63.45
70248;BME280;57641;51.416;5.506;2023-01-09T05:00:00;99596.78;;;10.65;63.47
70248;BME280;57641;51.416;5.506;2023-01-09T05:02:26;99592.09;;;10.52;62.94
70248;BME280;57641;51.416;5.506;2023-01-09T05:04:54;99582.06;;;10.69;63.80
70248;BME280;57641;51.416;5.506;2023-01-09T05:07:21;99591.75;;;10.55;63.44
70248;BME280;57641;51.416;5.506;2023-01-09T05:09:46;99587.03;;;10.57;63.71
70248;BME280;57641;51.416;5.506;2023-01-09T05:12:12;99592.84;;;10.61;62.75
70248;BME280;57641;51.416;5.506;2023-01-09T05:14:37;99588.91;;;10.57;63.96
70248;BME280;57641;51.416;5.506;2023-01-09T05:17:03;99591.44;;;10.80;63.26
70248;BME280;57641;51.416;5.506;2023-01-09T05:19:28;99577.28;;;10.79;62.20
70248;BME280;57641;51.416;5.506;2023-01-09T05:21:55;99585.84;;;10.75;62.80
70248;BME280;57641;51.416;5.506;2023-01-09T05:24:20;99580.34;;;10.76;62.66
70248;BME280;57641;51.416;5.506;2023-01-09T05:26:45;99586.66;;;10.90;62.05
70248;BME280;57641;51.416;5.506;2023-01-09T05:29:11;99589.69;;;10.87;62.53
70248;BME280;57641;51.416;5.506;2023-01-09T05:31:37;99582.78;;;10.92;61.94
70248;BME280;57641;51.416;5.506;2023-01-09T05:34:03;99588.41;;;10.97;61.81
70248;BME280;57641;51.416;5.506;2023-01-09T05:36:34;99593.47;;;10.92;62.33
70248;BME280;57641;51.416;5.506;2023-01-09T05:38:59;99587.56;;;10.97;62.03
70248;BME280;57641;51.416;5.506;2023-01-09T05:41:26;99582.06;;;10.98;62.08
70248;BME280;57641;51.416;5.506;2023-01-09T05:43:53;99574.75;;;11.07;61.69
70248;BME280;57641;51.416;5.506;2023-01-09T05:46:18;99575.84;;;10.77;62.09
70248;BME280;57641;51.416;5.506;2023-01-09T05:48:44;99569.44;;;11.07;61.90
70248;BME280;57641;51.416;5.506;2023-01-09T05:51:11;99568.94;;;10.82;61.79
70248;BME280;57641;51.416;5.506;2023-01-09T05:53:37;99571.13;;;10.79;62.84
70248;BME280;57641;51.416;5.506;2023-01-09T05:56:02;99572.56;;;10.96;62.34
70248;BME280;57641;51.416;5.506;2023-01-09T05:58:28;99564.78;;;10.80;62.02
70248;BME280;57641;51.416;5.506;2023-01-09T06:00:58;99571.13;;;10.64;62.57
70248;BME280;57641;51.416;5.506;2023-01-09T06:03:24;99568.53;;;10.85;62.00
70248;BME280;57641;51.416;5.506;2023-01-09T06:05:50;99569.41;;;10.71;63.76
70248;BME280;57641;51.416;5.506;2023-01-09T06:08:16;99575.97;;;10.90;62.69
70248;BME280;57641;51.416;5.506;2023-01-09T06:10:42;99567.72;;;10.85;62.60
70248;BME280;57641;51.416;5.506;2023-01-09T06:13:07;99568.50;;;11.00;62.33
70248;BME280;57641;51.416;5.506;2023-01-09T06:15:33;99559.19;;;11.11;62.13
70248;BME280;57641;51.416;5.506;2023-01-09T06:18:02;99563.22;;;11.21;61.86
70248;BME280;57641;51.416;5.506;2023-01-09T06:20:29;99559.66;;;11.14;60.85
70248;BME280;57641;51.416;5.506;2023-01-09T06:22:55;99558.72;;;11.22;61.24
70248;BME280;57641;51.416;5.506;2023-01-09T06:25:20;99550.22;;;10.97;61.38
70248;BME280;57641;51.416;5.506;2023-01-09T06:27:46;99551.19;;;11.11;61.26
70248;BME280;57641;51.416;5.506;2023-01-09T06:30:11;99564.78;;;11.30;61.14
70248;BME280;57641;51.416;5.506;2023-01-09T06:32:37;99562.78;;;11.18;61.05
70248;BME280;57641;51.416;5.506;2023-01-09T06:35:03;99572.38;;;11.33;61.56
70248;BME280;57641;51.416;5.506;2023-01-09T06:37:29;99568.97;;;11.39;61.60
70248;BME280;57641;51.416;5.506;2023-01-09T06:39:56;99572.91;;;11.43;61.55
70248;BME280;57641;51.416;5.506;2023-01-09T06:42:22;99572.66;;;11.38;61.75
70248;BME280;57641;51.416;5.506;2023-01-09T06:44:47;99570.28;;;11.29;61.03
70248;BME280;57641;51.416;5.506;2023-01-09T06:47:13;99575.13;;;11.40;60.87
70248;BME280;57641;51.416;5.506;2023-01-09T06:49:38;99584.03;;;11.26;60.44
70248;BME280;57641;51.416;5.506;2023-01-09T06:52:04;99594.56;;;11.34;61.10
70248;BME280;57641;51.416;5.506;2023-01-09T06:54:33;99589.66;;;11.37;59.88
70248;BME280;57641;51.416;5.506;2023-01-09T06:56:59;99586.19;;;11.58;60.89
70248;BME280;57641;51.416;5.506;2023-01-09T06:59:25;99589.00;;;11.50;60.37
70248;BME280;57641;51.416;5.506;2023-01-09T07:01:51;99594.41;;;11.57;60.73
70248;BME280;57641;51.416;5.506;2023-01-09T07:04:16;99599.91;;;11.55;60.85
70248;BME280;57641;51.416;5.506;2023-01-09T07:06:46;99599.53;;;11.58;59.86
70248;BME280;57641;51.416;5.506;2023-01-09T07:09:13;99600.06;;;11.47;60.34
70248;BME280;57641;51.416;5.506;2023-01-09T07:11:39;99610.31;;;11.29;60.27
70248;BME280;57641;51.416;5.506;2023-01-09T07:14:05;99602.56;;;11.34;60.74
70248;BME280;57641;51.416;5.506;2023-01-09T07:16:31;99613.06;;;11.35;61.30
70248;BME280;57641;51.416;5.506;2023-01-09T07:18:58;99611.25;;;11.21;60.96
70248;BME280;57641;51.416;5.506;2023-01-09T07:21:25;99616.78;;;11.20;60.75
70248;BME280;57641;51.416;5.506;2023-01-09T07:23:50;99614.69;;;11.00;61.85
70248;BME280;57641;51.416;5.506;2023-01-09T07:26:16;99618.97;;;11.31;61.19
70248;BME280;57641;51.416;5.506;2023-01-09T07:28:41;99629.66;;;11.31;61.11
70248;BME280;57641;51.416;5.506;2023-01-09T07:31:07;99631.75;;;11.35;60.63
70248;BME280;57641;51.416;5.506;2023-01-09T07:33:34;99647.00;;;11.27;60.87
70248;BME280;57641;51.416;5.506;2023-01-09T07:36:03;99638.91;;;11.35;61.02
70248;BME280;57641;51.416;5.506;2023-01-09T07:38:29;99639.44;;;11.45;60.40
70248;BME280;57641;51.416;5.506;2023-01-09T07:40:54;99645.22;;;11.49;60.48
70248;BME280;57641;51.416;5.506;2023-01-09T07:43:20;99644.81;;;11.66;59.02
70248;BME280;57641;51.416;5.506;2023-01-09T07:45:45;99652.13;;;11.43;59.96
70248;BME280;57641;51.416;5.506;2023-01-09T07:48:11;99654.00;;;11.64;60.03
70248;BME280;57641;51.416;5.506;2023-01-09T07:50:37;99650.28;;;11.43;60.42
70248;BME280;57641;51.416;5.506;2023-01-09T07:53:03;99651.38;;;11.49;60.13
70248;BME280;57641;51.416;5.506;2023-01-09T07:55:28;99660.16;;;11.43;60.71
70248;BME280;57641;51.416;5.506;2023-01-09T07:57:54;99666.16;;;11.30;60.31
70248;BME280;57641;51.416;5.506;2023-01-09T08:00:20;99667.75;;;11.25;60.97
70248;BME280;57641;51.416;5.506;2023-01-09T08:02:51;99675.28;;;11.21;61.32
70248;BME280;57641;51.416;5.506;2023-01-09T08:05:17;99668.66;;;11.17;61.88
70248;BME280;57641;51.416;5.506;2023-01-09T08:07:46;99681.44;;;11.22;62.03
70248;BME280;57641;51.416;5.506;2023-01-09T08:10:14;99670.56;;;11.38;62.12
70248;BME280;57641;51.416;5.506;2023-01-09T08:12:46;99675.34;;;11.28;62.01
70248;BME280;57641;51.416;5.506;2023-01-09T08:15:13;99694.50;;;11.17;62.27
70248;BME280;57641;51.416;5.506;2023-01-09T08:17:41;99681.81;;;11.19;62.34
70248;BME280;57641;51.416;5.506;2023-01-09T08:20:13;99684.97;;;10.93;63.05
70248;BME280;57641;51.416;5.506;2023-01-09T08:22:44;99702.44;;;11.10;62.84
70248;BME280;57641;51.416;5.506;2023-01-09T08:25:19;99696.34;;;11.01;62.56
70248;BME280;57641;51.416;5.506;2023-01-09T08:27:45;99701.16;;;11.21;62.42
70248;BME280;57641;51.416;5.506;2023-01-09T08:30:12;99703.03;;;11.27;62.05
70248;BME280;57641;51.416;5.506;2023-01-09T08:32:38;99709.88;;;11.15;61.89
70248;BME280;57641;51.416;5.506;2023-01-09T08:35:06;99721.19;;;11.17;62.41
70248;BME280;57641;51.416;5.506;2023-01-09T08:37:31;99719.44;;;11.24;61.59
70248;BME280;57641;51.416;5.506;2023-01-09T08:39:57;99727.16;;;11.33;61.16
70248;BME280;57641;51.416;5.506;2023-01-09T08:42:23;99730.47;;;11.35;61.24
70248;BME280;57641;51.416;5.506;2023-01-09T08:45:11;99727.59;;;11.37;60.88
70248;BME280;57641;51.416;5.506;2023-01-09T08:47:56;99734.59;;;11.38;61.40
70248;BME280;57641;51.416;5.506;2023-01-09T08:50:22;99740.50;;;11.33;61.35
70248;BME280;57641;51.416;5.506;2023-01-09T08:52:47;99749.91;;;11.29;61.81
70248;BME280;57641;51.416;5.506;2023-01-09T08:55:13;99757.63;;;11.24;60.09
70248;BME280;57641;51.416;5.506;2023-01-09T08:57:52;99756.88;;;11.16;61.14
70248;BME280;57641;51.416;5.506;2023-01-09T09:00:20;99770.13;;;11.24;61.67
70248;BME280;57641;51.416;5.506;2023-01-09T09:02:53;99774.44;;;11.39;60.66
70248;BME280;57641;51.416;5.506;2023-01-09T09:05:20;99769.50;;;11.36;59.83
70248;BME280;57641;51.416;5.506;2023-01-09T09:07:47;99782.56;;;11.46;59.99
70248;BME280;57641;51.416;5.506;2023-01-09T09:10:19;99797.81;;;11.23;61.65
70248;BME280;57641;51.416;5.506;2023-01-09T09:12:47;99801.53;;;11.36;60.83
70248;BME280;57641;51.416;5.506;2023-01-09T09:15:13;99791.09;;;11.27;61.56
70248;BME280;57641;51.416;5.506;2023-01-09T09:17:59;99812.66;;;11.40;61.29
70248;BME280;57641;51.416;5.506;2023-01-09T09:20:32;99809.59;;;11.43;61.84
70248;BME280;57641;51.416;5.506;2023-01-09T09:23:02;99806.38;;;11.33;61.05
70248;BME280;57641;51.416;5.506;2023-01-09T09:25:28;99813.09;;;11.29;62.32
70248;BME280;57641;51.416;5.506;2023-01-09T09:27:54;99811.66;;;11.41;62.68
70248;BME280;57641;51.416;5.506;2023-01-09T09:30:23;99821.31;;;11.57;62.32
70248;BME280;57641;51.416;5.506;2023-01-09T09:32:49;99822.47;;;11.54;62.25
70248;BME280;57641;51.416;5.506;2023-01-09T09:35:16;99836.47;;;11.27;62.07
70248;BME280;57641;51.416;5.506;2023-01-09T09:37:51;99833.00;;;11.56;62.14
70248;BME280;57641;51.416;5.506;2023-01-09T09:40:22;99838.50;;;11.54;61.79
70248;BME280;57641;51.416;5.506;2023-01-09T09:45:47;99855.53;;;11.53;62.86
70248;BME280;57641;51.416;5.506;2023-01-09T09:51:31;99861.13;;;11.58;61.20
70248;BME280;57641;51.416;5.506;2023-01-09T09:54:04;99878.69;;;11.75;61.05
70248;BME280;57641;51.416;5.506;2023-01-09T09:56:34;99882.69;;;11.71;61.01
70248;BME280;57641;51.416;5.506;2023-01-09T09:59:10;99892.56;;;11.71;60.12
70248;BME280;57641;51.416;5.506;2023-01-09T10:01:42;99893.09;;;11.66;60.90
70248;BME280;57641;51.416;5.506;2023-01-09T10:04:15;99909.41;;;11.57;61.45
70248;BME280;57641;51.416;5.506;2023-01-09T10:06:47;99905.78;;;11.64;60.18
70248;BME280;57641;51.416;5.506;2023-01-09T10:09:50;99911.81;;;11.81;60.31
70248;BME280;57641;51.416;5.506;2023-01-09T10:14:58;99926.31;;;11.49;61.44
70248;BME280;57641;51.416;5.506;2023-01-09T10:28:43;99935.75;;;11.74;60.88
70248;BME280;57641;51.416;5.506;2023-01-09T10:34:36;99943.31;;;11.33;61.59
70248;BME280;57641;51.416;5.506;2023-01-09T10:37:25;99950.22;;;11.42;61.87
70248;BME280;57641;51.416;5.506;2023-01-09T10:39:56;99952.75;;;11.59;61.49
70248;BME280;57641;51.416;5.506;2023-01-09T10:42:34;99952.28;;;11.55;62.09
70248;BME280;57641;51.416;5.506;2023-01-09T10:47:44;99960.72;;;11.81;61.88
70248;BME280;57641;51.416;5.506;2023-01-09T10:50:25;99976.88;;;11.65;62.14
70248;BME280;57641;51.416;5.506;2023-01-09T10:53:08;99979.84;;;11.70;61.95
70248;BME280;57641;51.416;5.506;2023-01-09T10:55:44;99969.41;;;11.83;61.73
70248;BME280;57641;51.416;5.506;2023-01-09T10:58:16;99974.38;;;11.87;62.42
70248;BME280;57641;51.416;5.506;2023-01-09T11:00:43;99970.03;;;11.85;62.33
70248;BME280;57641;51.416;5.506;2023-01-09T11:03:15;99973.88;;;11.68;62.69
70248;BME280;57641;51.416;5.506;2023-01-09T11:05:43;99972.78;;;11.77;62.19
70248;BME280;57641;51.416;5.506;2023-01-09T11:08:21;99973.34;;;11.73;61.35
70248;BME280;57641;51.416;5.506;2023-01-09T11:11:01;99972.91;;;11.99;61.92
70248;BME280;57641;51.416;5.506;2023-01-09T11:13:35;99978.13;;;11.77;62.38
70248;BME280;57641;51.416;5.506;2023-01-09T11:18:47;99992.94;;;11.80;63.06
70248;BME280;57641;51.416;5.506;2023-01-09T11:21:29;99992.78;;;11.59;62.48
70248;BME280;57641;51.416;5.506;2023-01-09T11:23:59;99987.44;;;11.81;62.61
70248;BME280;57641;51.416;5.506;2023-01-09T11:26:41;99997.78;;;11.62;62.14
70248;BME280;57641;51.416;5.506;2023-01-09T11:29:15;99999.13;;;11.80;61.81
70248;BME280;57641;51.416;5.506;2023-01-09T11:31:52;99995.72;;;11.49;62.09
70248;BME280;57641;51.416;5.506;2023-01-09T11:34:24;99991.59;;;11.61;62.80
70248;BME280;57641;51.416;5.506;2023-01-09T11:37:00;99987.94;;;11.62;62.48
70248;BME280;57641;51.416;5.506;2023-01-09T11:39:29;99996.34;;;11.74;62.19
70248;BME280;57641;51.416;5.506;2023-01-09T11:42:02;100000.63;;;11.83;61.61
70248;BME280;57641;51.416;5.506;2023-01-09T11:44:32;100002.47;;;11.60;61.60
70248;BME280;57641;51.416;5.506;2023-01-09T11:46:58;100012.56;;;11.50;61.85
70248;BME280;57641;51.416;5.506;2023-01-09T11:49:29;100007.50;;;11.55;63.47
70248;BME280;57641;51.416;5.506;2023-01-09T11:52:16;100002.13;;;11.63;62.89
70248;BME280;57641;51.416;5.506;2023-01-09T11:55:00;100015.19;;;11.58;63.30
70248;BME280;57641;51.416;5.506;2023-01-09T11:57:29;100016.53;;;11.54;62.66
70248;BME280;57641;51.416;5.506;2023-01-09T12:00:01;100011.91;;;11.48;63.51
70248;BME280;57641;51.416;5.506;2023-01-09T12:03:05;100017.75;;;11.66;62.67
70248;BME280;57641;51.416;5.506;2023-01-09T12:11:19;100016.91;;;11.73;62.06
70248;BME280;57641;51.416;5.506;2023-01-09T12:20:14;100029.06;;;11.76;61.88
70248;BME280;57641;51.416;5.506;2023-01-09T12:25:40;100039.56;;;11.77;61.06
70248;BME280;57641;51.416;5.506;2023-01-09T12:31:23;100044.09;;;11.69;62.00
70248;BME280;57641;51.416;5.506;2023-01-09T12:34:15;100048.75;;;11.75;63.61
70248;BME280;57641;51.416;5.506;2023-01-09T12:40:30;100051.91;;;11.78;64.80
70248;BME280;57641;51.416;5.506;2023-01-09T12:43:01;100052.25;;;11.75;65.15
70248;BME280;57641;51.416;5.506;2023-01-09T12:45:33;100046.94;;;11.90;64.69
70248;BME280;57641;51.416;5.506;2023-01-09T12:50:51;100041.78;;;11.89;64.90
70248;BME280;57641;51.416;5.506;2023-01-09T12:53:25;100052.69;;;12.02;64.39
70248;BME280;57641;51.416;5.506;2023-01-09T12:56:03;100052.50;;;12.03;64.63
70248;BME280;57641;51.416;5.506;2023-01-09T12:58:41;100047.63;;;12.07;64.22
70248;BME280;57641;51.416;5.506;2023-01-09T13:01:18;100047.34;;;12.16;63.18
70248;BME280;57641;51.416;5.506;2023-01-09T13:03:57;100054.00;;;12.20;63.89
70248;BME280;57641;51.416;5.506;2023-01-09T13:06:27;100057.78;;;12.26;63.10
70248;BME280;57641;51.416;5.506;2023-01-09T13:11:38;100064.41;;;12.45;61.83
70248;BME280;57641;51.416;5.506;2023-01-09T13:14:24;100073.63;;;12.27;61.05
70248;BME280;57641;51.416;5.506;2023-01-09T13:16:54;100073.88;;;12.03;62.03
70248;BME280;57641;51.416;5.506;2023-01-09T13:19:32;100088.47;;;12.30;61.42
70248;BME280;57641;51.416;5.506;2023-01-09T13:22:03;100092.78;;;12.16;60.72
70248;BME280;57641;51.416;5.506;2023-01-09T13:24:41;100091.84;;;12.09;61.01
70248;BME280;57641;51.416;5.506;2023-01-09T13:27:19;100104.06;;;12.26;61.14
70248;BME280;57641;51.416;5.506;2023-01-09T13:29:52;100107.25;;;12.22;60.63
70248;BME280;57641;51.416;5.506;2023-01-09T13:32:33;100104.84;;;12.27;61.61
70248;BME280;57641;51.416;5.506;2023-01-09T13:35:02;100110.81;;;12.37;61.14
70248;BME280;57641;51.416;5.506;2023-01-09T13:37:34;100094.09;;;12.20;62.08
70248;BME280;57641;51.416;5.506;2023-01-09T13:40:30;100107.16;;;12.15;61.87
70248;BME280;57641;51.416;5.506;2023-01-09T13:43:05;100119.59;;;12.23;61.86
70248;BME280;57641;51.416;5.506;2023-01-09T13:45:39;100121.53;;;12.14;61.89
70248;BME280;57641;51.416;5.506;2023-01-09T13:50:37;100124.41;;;12.27;61.96
70248;BME280;57641;51.416;5.506;2023-01-09T13:58:55;100141.94;;;12.30;61.55
70248;BME280;57641;51.416;5.506;2023-01-09T14:06:37;100168.50;;;12.46;61.26
70248;BME280;57641;51.416;5.506;2023-01-09T14:09:19;100160.59;;;12.53;60.85
70248;BME280;57641;51.416;5.506;2023-01-09T14:11:46;100169.44;;;12.53;60.91
70248;BME280;57641;51.416;5.506;2023-01-09T14:14:27;100173.03;;;12.60;61.75
70248;BME280;57641;51.416;5.506;2023-01-09T14:16:55;100179.41;;;12.59;61.14
70248;BME280;57641;51.416;5.506;2023-01-09T14:19:37;100187.78;;;12.56;60.96
70248;BME280;57641;51.416;5.506;2023-01-09T14:22:05;100197.47;;;12.57;60.43
70248;BME280;57641;51.416;5.506;2023-01-09T14:24:39;100197.66;;;12.56;60.04
70248;BME280;57641;51.416;5.506;2023-01-09T14:33:25;100223.59;;;12.33;60.33
70248;BME280;57641;51.416;5.506;2023-01-09T14:36:19;100229.75;;;12.33;60.36
70248;BME280;57641;51.416;5.506;2023-01-09T14:38:58;100236.06;;;12.40;60.57
70248;BME280;57641;51.416;5.506;2023-01-09T14:41:47;100238.06;;;12.38;60.78
70248;BME280;57641;51.416;5.506;2023-01-09T14:50:40;100255.03;;;12.31;60.66
70248;BME280;57641;51.416;5.506;2023-01-09T14:53:21;100262.69;;;12.34;60.74
70248;BME280;57641;51.416;5.506;2023-01-09T14:55:56;100268.59;;;12.44;61.16
70248;BME280;57641;51.416;5.506;2023-01-09T14:58:31;100271.91;;;12.31;60.99
70248;BME280;57641;51.416;5.506;2023-01-09T15:03:40;100286.97;;;12.47;61.27
70248;BME280;57641;51.416;5.506;2023-01-09T15:06:38;100298.38;;;12.41;61.72
70248;BME280;57641;51.416;5.506;2023-01-09T15:09:39;100304.50;;;12.49;61.32
70248;BME280;57641;51.416;5.506;2023-01-09T15:12:09;100309.31;;;12.54;61.12
70248;BME280;57641;51.416;5.506;2023-01-09T15:14:42;100313.94;;;12.60;61.42
70248;BME280;57641;51.416;5.506;2023-01-09T15:17:36;100318.75;;;12.64;61.71